Aktualne dane pomiarowe

Uwaga, wersja testowa! Automatyczne pobieranie danych za pomocą narzędzi lub skryptów to umożliwiających jest zabronione.

Dane meteo z obszaru Polski uzyskane na podstawie depesz SYNOP pobieranych co godzinę z NWS. Najedź myszką na symbol przedstawiony w tabeli, aby uzyskać informacje co do jego znaczenia. Prosimy pamiętać, że to testowa wersja strony, która jeszcze nie jest ukończona. Stworzono również jest krótki FAQ dotyczący korzystania z tej podstrony Anomalie temperatury w chwili obecnej odniesione są do okresu referencyjnego 1951-2016. Okres ten będzie później zmieniony na 1981-2010. Kliknij ikonę aby pobrać plik CSV. Kliknij ikonę aby wygenerować mapę synoptyczną dla danego terminu.

Wybierz Datę:    

        

Krosno (12670)

Dane terminowe dla wybranej stacji. Kliknij datę, aby otrzymać dane z tego terminu dla wszystkich stacji.

TemperaturaZachmurzenieWiatrCiśnienieOpadyPogoda
 Data t td wb tx tn tg rh  Nt Nl Cl Cm Ch ws wd g1 g2 wx mslp ppp ch 24h 12h t ww ww w1 w2  
2019-07-12 23:00:00 15.8 8.6 11.5--- 6240.0wx-wx1wx--11011.0 972.2 -0.1---------
2019-07-12 22:00:00 15.1 8.8 11.3--- 6645.0wx-wxwx1wx---1011.2 972.3 0.2---------
2019-07-12 21:00:00 16.3 8.9 11.9--- 6250.0wx-wx3wx--31010.9 972.2 0.4---------
2019-07-12 20:00:00 17.2 8.7 12.2--- 5740.0wx-wxwx2wx--21010.9 972.3 0.6---------
2019-07-12 19:00:00 18.2 8.8 12.7--- 5450.0wxwxwxwxwx2wx--21010.6 972.1 0.5---------
2019-07-12 18:00:00 19.5 8.6 13.2 23.1 12.9- 4945.0wxwxwxwxwx3wx-831010.1 971.8 -0.1- 0.012------
2019-07-12 17:00:00 21.2 7.9 13.6--- 4235.0wxwxwxwxwx3wx--31009.8 971.7 -0.5---------
2019-07-12 16:00:00 22.0 7.1 13.7--- 3840.0wxwxwxwxwx3wx-831009.6 971.6 -1.0---------
2019-07-12 15:00:00 22.6 5.6 13.3--- 3340.0wxwxwxwxwx1wx--11009.8 971.9 -0.9---------
2019-07-12 14:00:00 22.3 6.2 13.4--- 3535.0wxwxwxwx2wx--21010.1 972.2 -1.0---------
2019-07-12 13:00:00 22.1 7.2 13.8--- 3840.0wxwxwxwx2wx--21010.6 972.6 -1.0---------
2019-07-12 12:00:00 22.0 8.6 14.3--- 4235.0wxwxwxwx1wx--11010.8 972.8 -1.0- 0.06------
2019-07-12 11:00:00 20.8 6.4 12.8--- 3930.0wxwxwx3wx--31011.4 973.2 -0.7---------
2019-07-12 10:00:00 20.3 7.7 13.2--- 4430.0wxwxwx2wx--21011.9 973.6 -0.5---------
2019-07-12 09:00:00 19.4 7.9 12.8--- 4730.0wxwxwxwx1wx---1012.2 973.8 -0.3---------
2019-07-12 08:00:00 18.4 8.2 12.5--- 5130.0wxwxwxwx2wx--21012.4 973.9 -0.2---------
2019-07-12 07:00:00 16.1 8.7 11.7--- 6230.0wxwxwxwx1wx--11013.0 974.1 0.0---------
2019-07-12 06:00:00 13.3 9.9 11.1 15.7 7.4 6 8026.0wxwxwxwx1wx--11013.3 974.1 0.1 6.4 0.012----- 6.6
2019-07-12 05:00:00 10.0 8.4 8.9--- 9020.0wxwxwxwx2wx---1013.8 974.1 0.2---------
2019-07-12 04:00:00 8.3 7.5 7.7--- 9520.0wx-wx2wx--21014.1 974.1 0.1---wx---
2019-07-12 03:00:00 7.7 6.8 7.0--- 9415.0wx-wx2wx--21014.0 974.0 -0.2---wx---
2019-07-12 02:00:00 7.6 6.7 6.9--- 949.0wx-wx2wx--21013.9 973.9 -0.3---wx---
2019-07-12 01:00:00 8.6 7.4 7.8--- 9213.0wx-2wx--21013.9 974.0 -0.3---------
2019-07-12 00:00:00 9.3 7.4 8.0--- 8815.0wx-1wx--11014.0 974.2 -0.1- 0.06------
2019-07-11 23:00:00 10.0 7.9 8.6--- 8720.0wx-1wx--11013.9 974.2 0.2---------
2019-07-11 22:00:00 11.4 8.1 9.3--- 8020.0wx-1wx--11013.8 974.3 0.6---------
2019-07-11 21:00:00 12.4 8.7 10.0--- 7820.0wxwxwx0---01013.7 974.3 1.1---------
2019-07-11 20:00:00 13.7 7.9 10.2--- 6827.0wxwxwx2wx--21013.2 974.0 1.1---------
2019-07-11 19:00:00 14.4 7.9 10.5--- 6550.0wxwxwx2wx--21012.8 973.7 0.9---------
2019-07-11 18:00:00 15.7 8.3 11.3 17.2 10.3- 6140.0wxwxwx2wx--21012.1 973.2 0.3- 6.012wx-w1--
2019-07-11 17:00:00 16.5 8.0 11.5--- 5730.0wxwxwxwx3wx--31011.7 972.9 0.2---------
2019-07-11 16:00:00 16.4 8.9 11.9--- 6129.0wxwxwx4wx--41011.6 972.8 -0.1---------
2019-07-11 15:00:00 16.1 9.1 11.9--- 6340.0wxwxwx4wx--41011.7 972.9 -0.3---wx-w1--
2019-07-11 14:00:00 16.7 9.9 12.5--- 6430.0wxwxwxwx4wx--41011.4 972.7 -0.7---------
2019-07-11 13:00:00 15.0 10.6 12.2--- 7540.0wxwxwxwx3wx--31011.9 972.9 0.2---wx---
2019-07-11 12:00:00 12.8 11.7 12.0--- 9330.0wxwxwx3wx-1531012.5 973.2 -0.1- 6.06wx-w1--
2019-07-11 11:00:00 10.4 8.8 9.3--- 907.0wxwxwx4wx91541013.0 973.4 0.0---wx-w1--
2019-07-11 10:00:00 15.7 8.3 11.3--- 6145.0wxwxwxwx3wx--31011.6 972.7 -0.7---------
2019-07-11 09:00:00 14.8 9.2 11.3--- 6935.0wxwxwxwx5wx--51012.3 973.3 0.0---wx-w1--
2019-07-11 08:00:00 13.4 9.3 10.8--- 7640.0wxwxwxwx4wx--41012.6 973.4 0.2---------
2019-07-11 07:00:00 12.6 10.3 11.0--- 8625.0wxwxwxwx2wx---1012.7 973.4 0.2---wx-w1--
2019-07-11 06:00:00 11.9 9.3 10.2 14.3 11.4 10 8410.0wxwxwx4wx--41012.7 973.3 0.1--12wx-- 3.0
2019-07-11 05:00:00 12.3 8.9 10.1--- 8030.0wxwxwx3wx--31012.5 973.2 -0.1---------
2019-07-11 04:00:00 12.0 8.7 9.9--- 8040.0wxwxwxwx2wx--21012.6 973.2 -0.5---------
2019-07-11 03:00:00 11.5 8.5 9.6--- 8240.0wx-wx2wx--21012.7 973.2 -0.9---------
2019-07-11 02:00:00 11.7 8.4 9.6--- 8050.0wxwxwxwx2wx--21012.7 973.3 -0.8---------
2019-07-11 01:00:00 11.9 8.6 9.8--- 8050.0wxwxwxwx2wx--21013.1 973.7 -0.3---------
2019-07-11 00:00:00 12.2 8.7 10.0--- 7950.0wxwxwxwx2wx--21013.5 974.1 -0.2--6wx-w1--
1.8 ms

 

Print Friendly, PDF & Email